createdAt,value
2023-04-09T00:03:26.846Z,101615.52
2023-04-09T00:06:54.040Z,101613.10
2023-04-09T00:10:21.403Z,101614.33
2023-04-09T00:13:48.292Z,101614.28
2023-04-09T00:17:15.107Z,101614.84
2023-04-09T00:20:42.083Z,101621.55
2023-04-09T00:24:09.321Z,101630.75
2023-04-09T00:27:36.314Z,101626.23
2023-04-09T00:31:03.729Z,101627.27
2023-04-09T00:34:30.567Z,101630.15
2023-04-09T00:37:57.598Z,101628.98
2023-04-09T00:41:24.560Z,101625.41
2023-04-09T00:44:51.349Z,101620.33
2023-04-09T00:48:18.793Z,101618.26
2023-04-09T00:51:47.706Z,101621.96
2023-04-09T00:55:15.537Z,101617.48
2023-04-09T00:58:43.160Z,101621.11
2023-04-09T01:02:10.147Z,101617.65
2023-04-09T01:05:45.217Z,101613.93
2023-04-09T01:09:19.478Z,101612.98
2023-04-09T01:12:59.322Z,101615.10
2023-04-09T01:16:27.231Z,101615.77
2023-04-09T01:20:03.308Z,101615.58
2023-04-09T01:23:43.517Z,101612.27
2023-04-09T01:27:11.366Z,101611.41
2023-04-09T01:30:50.506Z,101614.41
2023-04-09T01:34:18.059Z,101618.70
2023-04-09T01:37:45.424Z,101619.88
2023-04-09T01:41:16.047Z,101616.98
2023-04-09T01:44:43.766Z,101614.30
2023-04-09T01:48:11.373Z,101619.11
2023-04-09T01:51:39.460Z,101622.75
2023-04-09T01:55:07.333Z,101623.67
2023-04-09T01:58:35.333Z,101622.20
2023-04-09T02:02:07.932Z,101621.55
2023-04-09T02:05:42.626Z,101621.77
2023-04-09T02:09:12.703Z,101622.98
2023-04-09T02:12:43.918Z,101619.09
2023-04-09T02:16:12.681Z,101623.66
2023-04-09T02:19:44.832Z,101621.80
2023-04-09T02:23:13.635Z,101622.18
2023-04-09T02:26:40.628Z,101624.63
2023-04-09T02:30:09.690Z,101623.39
2023-04-09T02:33:36.461Z,101621.61
2023-04-09T02:37:03.650Z,101619.29
2023-04-09T02:40:31.167Z,101620.95
2023-04-09T02:43:58.276Z,101617.21
2023-04-09T02:47:27.202Z,101614.21
2023-04-09T02:50:54.120Z,101607.86
2023-04-09T02:54:21.505Z,101605.27
2023-04-09T02:57:48.649Z,101597.60
2023-04-09T03:01:15.592Z,101595.47
2023-04-09T03:04:42.598Z,101595.62
2023-04-09T03:08:09.666Z,101596.20
2023-04-09T03:11:36.989Z,101596.42
2023-04-09T03:15:04.593Z,101593.89
2023-04-09T03:18:31.526Z,101583.52
2023-04-09T03:21:58.483Z,101580.98
2023-04-09T03:25:26.647Z,101576.55
2023-04-09T03:28:54.642Z,101570.39
2023-04-09T03:32:22.127Z,101572.16
2023-04-09T03:35:49.373Z,101572.83
2023-04-09T03:39:17.854Z,101572.02
2023-04-09T03:42:46.671Z,101577.29
2023-04-09T03:46:18.862Z,101575.66
2023-04-09T03:49:47.231Z,101574.09
2023-04-09T03:53:24.069Z,101573.63
2023-04-09T03:56:52.542Z,101573.92
2023-04-09T04:00:20.739Z,101568.04
2023-04-09T04:04:16.516Z,101569.31
2023-04-09T04:08:03.925Z,101572.61
2023-04-09T04:11:30.939Z,101572.98
2023-04-09T04:14:58.077Z,101582.64
2023-04-09T04:18:31.730Z,101586.21
2023-04-09T04:21:58.716Z,101588.94
2023-04-09T04:25:26.887Z,101585.54
2023-04-09T04:28:55.096Z,101585.35
2023-04-09T04:33:01.104Z,101587.66
2023-04-09T04:36:28.851Z,101585.88
2023-04-09T04:39:55.869Z,101583.52
2023-04-09T04:43:23.378Z,101582.45
2023-04-09T04:46:52.487Z,101582.31
2023-04-09T04:50:19.618Z,101582.85
2023-04-09T04:53:57.194Z,101586.60
2023-04-09T04:57:24.863Z,101587.41
2023-04-09T05:00:52.591Z,101584.42
2023-04-09T05:04:19.600Z,101587.56
2023-04-09T05:07:47.273Z,101589.32
2023-04-09T05:11:16.936Z,101579.08
2023-04-09T05:14:45.718Z,101583.45
2023-04-09T05:18:12.851Z,101588.02
2023-04-09T05:21:40.419Z,101599.41
2023-04-09T05:25:10.536Z,101599.93
2023-04-09T05:28:39.077Z,101596.52
2023-04-09T05:32:13.392Z,101598.06
2023-04-09T05:35:42.667Z,101590.91
2023-04-09T05:39:10.126Z,101589.85
2023-04-09T05:42:37.981Z,101590.23
2023-04-09T05:46:12.151Z,101594.02
2023-04-09T05:49:39.076Z,101595.64
2023-04-09T05:53:10.241Z,101596.64
2023-04-09T05:56:41.821Z,101598.29
2023-04-09T06:00:10.865Z,101598.63
2023-04-09T06:03:44.382Z,101593.30
2023-04-09T06:07:11.495Z,101600.79
2023-04-09T06:10:39.545Z,101600.19
2023-04-09T06:14:08.509Z,101600.50
2023-04-09T06:17:35.624Z,101597.77
2023-04-09T06:21:06.981Z,101595.55
2023-04-09T06:24:35.973Z,101599.66
2023-04-09T06:28:05.589Z,101603.54
2023-04-09T06:31:33.570Z,101606.29
2023-04-09T06:35:01.787Z,101600.55
2023-04-09T06:38:29.559Z,101605.11
2023-04-09T06:41:56.598Z,101603.52
2023-04-09T06:45:32.878Z,101600.81
2023-04-09T06:49:00.063Z,101603.17
2023-04-09T06:52:27.010Z,101608.20
2023-04-09T06:55:55.501Z,101606.41
2023-04-09T06:59:23.634Z,101601.27
2023-04-09T07:02:50.726Z,101608.98
2023-04-09T07:06:17.809Z,101610.77
2023-04-09T07:09:45.594Z,101617.77
2023-04-09T07:13:12.675Z,101624.27
2023-04-09T07:16:39.765Z,101632.98
2023-04-09T07:20:08.371Z,101633.23
2023-04-09T07:23:38.217Z,101634.89
2023-04-09T07:27:07.693Z,101637.39
2023-04-09T07:30:34.991Z,101638.67
2023-04-09T07:34:03.129Z,101646.84
2023-04-09T07:37:30.558Z,101652.55
2023-04-09T07:40:58.552Z,101653.85
2023-04-09T07:44:26.348Z,101652.41
2023-04-09T07:47:53.809Z,101653.55
2023-04-09T07:51:22.903Z,101654.30
2023-04-09T07:54:52.389Z,101653.98
2023-04-09T07:58:20.583Z,101657.17
2023-04-09T08:01:47.748Z,101657.08
2023-04-09T08:05:15.757Z,101655.46
2023-04-09T08:08:45.716Z,101666.66
2023-04-09T08:12:13.277Z,101665.84
2023-04-09T08:15:41.608Z,101676.09
2023-04-09T08:19:09.358Z,101672.80
2023-04-09T08:22:37.444Z,101666.97
2023-04-09T08:26:04.674Z,101666.34
2023-04-09T08:29:32.532Z,101653.79
2023-04-09T08:32:59.691Z,101655.95
2023-04-09T08:36:27.819Z,101660.20
2023-04-09T08:39:56.089Z,101657.42
2023-04-09T08:43:41.962Z,101653.84
2023-04-09T08:47:14.371Z,101650.14
2023-04-09T08:50:42.198Z,101651.45
2023-04-09T08:54:10.400Z,101651.48
2023-04-09T08:57:42.863Z,101650.83
2023-04-09T09:01:22.086Z,101648.92
2023-04-09T09:04:51.139Z,101644.53
2023-04-09T09:08:27.255Z,101644.79
2023-04-09T09:11:55.037Z,101639.83
2023-04-09T09:15:32.288Z,101642.77
2023-04-09T09:19:01.162Z,101644.27
2023-04-09T09:22:28.261Z,101648.29
2023-04-09T09:25:56.426Z,101644.95
2023-04-09T09:29:24.826Z,101652.06
2023-04-09T09:32:55.237Z,101651.48
2023-04-09T09:36:36.845Z,101647.25
2023-04-09T09:40:05.289Z,101643.55
2023-04-09T09:43:43.357Z,101643.95
2023-04-09T09:47:13.397Z,101641.52
2023-04-09T09:50:42.139Z,101642.97
2023-04-09T09:54:13.069Z,101643.45
2023-04-09T09:57:43.621Z,101636.50
2023-04-09T10:01:14.650Z,101629.42
2023-04-09T10:04:41.954Z,101626.55
2023-04-09T10:08:10.260Z,101626.84
2023-04-09T10:11:42.566Z,101623.22
2023-04-09T10:15:12.157Z,101617.58
2023-04-09T10:18:40.757Z,101613.45
2023-04-09T10:22:11.461Z,101613.10
2023-04-09T10:25:38.494Z,101609.66
2023-04-09T10:29:10.061Z,101609.52
2023-04-09T10:32:40.034Z,101615.07
2023-04-09T10:36:13.360Z,101612.61
2023-04-09T10:39:46.236Z,101610.56
2023-04-09T10:43:14.478Z,101611.58
2023-04-09T10:46:43.275Z,101609.36
2023-04-09T10:50:26.699Z,101607.05
2023-04-09T10:53:55.172Z,101606.22
2023-04-09T10:57:26.376Z,101607.16
2023-04-09T11:00:55.349Z,101603.29
2023-04-09T11:04:24.546Z,101603.01
2023-04-09T11:07:56.271Z,101606.69
2023-04-09T11:11:29.407Z,101606.35
2023-04-09T11:14:56.269Z,101604.41
2023-04-09T11:18:28.555Z,101608.57
2023-04-09T11:21:56.196Z,101608.98
2023-04-09T11:25:26.530Z,101609.41
2023-04-09T11:28:59.180Z,101613.29
2023-04-09T11:32:32.054Z,101602.69
2023-04-09T11:35:59.053Z,101599.93
2023-04-09T11:39:26.309Z,101595.23
2023-04-09T11:42:55.580Z,101596.95
2023-04-09T11:46:26.155Z,101598.81
2023-04-09T11:49:54.058Z,101593.73
2023-04-09T11:53:24.523Z,101600.02
2023-04-09T11:56:56.050Z,101600.71
2023-04-09T12:00:24.959Z,101599.99
2023-04-09T12:03:57.232Z,101597.28
2023-04-09T12:07:25.409Z,101598.27
2023-04-09T12:10:54.099Z,101595.55
2023-04-09T12:14:22.897Z,101596.89
2023-04-09T12:17:52.193Z,101597.08
2023-04-09T12:21:19.465Z,101596.39
2023-04-09T12:24:46.594Z,101595.94
2023-04-09T12:28:15.845Z,101597.15
2023-04-09T12:31:42.713Z,101594.66
2023-04-09T12:35:10.650Z,101599.95
2023-04-09T12:38:38.320Z,101597.63
2023-04-09T12:42:05.215Z,101594.73
2023-04-09T12:45:32.692Z,101594.39
2023-04-09T12:48:59.517Z,101590.95
2023-04-09T12:52:26.718Z,101592.15
2023-04-09T12:55:53.913Z,101592.52
2023-04-09T12:59:20.933Z,101586.05
2023-04-09T13:02:48.176Z,101586.62
2023-04-09T13:06:15.271Z,101587.06
2023-04-09T13:09:42.224Z,101584.64
2023-04-09T13:13:12.275Z,101586.80
2023-04-09T13:16:39.372Z,101585.21
2023-04-09T13:20:07.862Z,101581.44
2023-04-09T13:23:34.806Z,101577.12
2023-04-09T13:27:02.158Z,101583.93
2023-04-09T13:30:29.418Z,101585.22
2023-04-09T13:33:56.688Z,101587.58
2023-04-09T13:37:23.619Z,101584.56
2023-04-09T13:40:50.348Z,101583.26
2023-04-09T13:44:17.286Z,101586.15
2023-04-09T13:47:44.500Z,101592.27
2023-04-09T13:51:12.177Z,101594.63
2023-04-09T13:54:39.555Z,101588.06
2023-04-09T13:58:06.618Z,101590.02
2023-04-09T14:01:35.938Z,101593.23
2023-04-09T14:05:03.989Z,101586.39
2023-04-09T14:08:32.234Z,101577.09
2023-04-09T14:11:59.068Z,101577.02
2023-04-09T14:15:26.450Z,101579.45
2023-04-09T14:18:53.474Z,101573.10
2023-04-09T14:22:20.526Z,101572.48
2023-04-09T14:25:47.424Z,101566.77
2023-04-09T14:29:14.295Z,101570.00
2023-04-09T14:32:41.323Z,101562.88
2023-04-09T14:36:09.403Z,101561.40
2023-04-09T14:39:36.474Z,101556.38
2023-04-09T14:43:03.514Z,101549.96
2023-04-09T14:46:30.433Z,101547.41
2023-04-09T14:49:57.534Z,101546.95
2023-04-09T14:53:24.741Z,101544.13
2023-04-09T14:56:52.111Z,101543.98
2023-04-09T15:00:19.804Z,101539.80
2023-04-09T15:03:47.708Z,101539.52
2023-04-09T15:07:14.548Z,101536.45
2023-04-09T15:10:41.932Z,101537.43
2023-04-09T15:14:08.914Z,101538.23
2023-04-09T15:17:35.900Z,101541.93
2023-04-09T15:21:03.234Z,101542.71
2023-04-09T15:24:30.089Z,101543.61
2023-04-09T15:27:57.160Z,101544.42
2023-04-09T15:31:24.272Z,101543.27
2023-04-09T15:34:51.280Z,101544.61
2023-04-09T15:38:21.200Z,101544.08
2023-04-09T15:41:48.106Z,101540.05
2023-04-09T15:45:16.792Z,101540.94
2023-04-09T15:48:43.905Z,101542.71
2023-04-09T15:52:11.216Z,101543.11
2023-04-09T15:55:38.216Z,101551.84
2023-04-09T15:59:05.438Z,101551.91
2023-04-09T16:02:32.446Z,101555.20
2023-04-09T16:06:01.825Z,101554.02
2023-04-09T16:09:29.312Z,101557.42
2023-04-09T16:12:56.599Z,101556.79
2023-04-09T16:16:23.824Z,101558.29
2023-04-09T16:19:51.048Z,101557.39
2023-04-09T16:23:18.244Z,101557.51
2023-04-09T16:26:46.517Z,101559.59
2023-04-09T16:30:14.619Z,101558.34
2023-04-09T16:33:43.264Z,101554.03
2023-04-09T16:37:11.926Z,101548.86
2023-04-09T16:40:39.856Z,101542.84
2023-04-09T16:44:10.411Z,101542.58
2023-04-09T16:47:40.592Z,101542.12
2023-04-09T16:51:11.080Z,101540.39
2023-04-09T16:54:38.928Z,101544.61
2023-04-09T16:58:09.511Z,101546.80
2023-04-09T17:01:38.720Z,101548.39
2023-04-09T17:05:09.071Z,101552.42
2023-04-09T17:08:37.147Z,101552.41
2023-04-09T17:12:05.731Z,101553.58
2023-04-09T17:15:33.477Z,101556.86
2023-04-09T17:19:04.670Z,101555.88
2023-04-09T17:22:38.277Z,101550.82
2023-04-09T17:26:06.663Z,101550.15
2023-04-09T17:29:35.728Z,101552.20
2023-04-09T17:33:05.076Z,101552.42
2023-04-09T17:36:35.613Z,101561.10
2023-04-09T17:40:04.299Z,101561.66
2023-04-09T17:43:32.095Z,101568.13
2023-04-09T17:47:00.511Z,101572.14
2023-04-09T17:50:29.117Z,101575.61
2023-04-09T17:53:57.420Z,101574.02
2023-04-09T17:57:27.858Z,101572.78
2023-04-09T18:00:57.132Z,101574.86
2023-04-09T18:04:29.087Z,101573.40
2023-04-09T18:07:59.910Z,101581.00
2023-04-09T18:11:28.163Z,101583.46
2023-04-09T18:14:55.371Z,101588.39
2023-04-09T18:18:25.711Z,101591.88
2023-04-09T18:21:55.534Z,101590.50
2023-04-09T18:25:23.580Z,101590.50
2023-04-09T18:28:51.644Z,101595.70
2023-04-09T18:32:20.364Z,101600.16
2023-04-09T18:35:49.536Z,101609.38
2023-04-09T18:39:20.199Z,101607.66
2023-04-09T18:42:53.007Z,101609.05
2023-04-09T18:46:22.928Z,101613.61
2023-04-09T18:49:52.146Z,101620.02
2023-04-09T18:53:20.248Z,101614.92
2023-04-09T18:56:49.381Z,101618.56
2023-04-09T19:00:18.594Z,101620.86
2023-04-09T19:03:46.336Z,101624.41
2023-04-09T19:07:17.779Z,101626.70
2023-04-09T19:10:47.825Z,101629.77
2023-04-09T19:14:16.122Z,101634.22
2023-04-09T19:17:45.163Z,101633.91
2023-04-09T19:21:13.799Z,101631.34
2023-04-09T19:24:44.308Z,101629.13
2023-04-09T19:28:12.670Z,101630.67
2023-04-09T19:31:41.650Z,101631.79
2023-04-09T19:35:12.679Z,101634.20
2023-04-09T19:38:40.728Z,101634.03
2023-04-09T19:42:10.299Z,101634.19
2023-04-09T19:45:39.387Z,101641.70
2023-04-09T19:49:08.233Z,101641.52
2023-04-09T19:52:37.994Z,101641.98
2023-04-09T19:56:06.069Z,101643.30
2023-04-09T19:59:41.060Z,101645.30
2023-04-09T20:03:10.561Z,101645.05
2023-04-09T20:06:37.562Z,101649.52
2023-04-09T20:10:05.076Z,101651.35
2023-04-09T20:13:33.404Z,101650.64
2023-04-09T20:17:00.433Z,101650.80
2023-04-09T20:20:27.785Z,101652.36
2023-04-09T20:23:54.704Z,101650.92
2023-04-09T20:27:22.637Z,101652.23
2023-04-09T20:30:49.437Z,101652.52
2023-04-09T20:34:16.558Z,101652.80
2023-04-09T20:37:43.516Z,101654.16
2023-04-09T20:41:10.495Z,101656.04
2023-04-09T20:44:38.185Z,101661.93
2023-04-09T20:48:05.095Z,101661.72
2023-04-09T20:51:32.265Z,101662.00
2023-04-09T20:54:59.975Z,101662.20
2023-04-09T20:58:27.707Z,101662.09
2023-04-09T21:01:55.676Z,101667.30
2023-04-09T21:05:24.184Z,101666.80
2023-04-09T21:08:52.217Z,101669.39
2023-04-09T21:12:19.340Z,101666.70
2023-04-09T21:15:46.455Z,101663.41
2023-04-09T21:19:13.643Z,101656.88
2023-04-09T21:22:41.087Z,101661.86
2023-04-09T21:26:08.998Z,101659.17
2023-04-09T21:29:36.156Z,101656.23
2023-04-09T21:33:05.675Z,101654.73
2023-04-09T21:36:36.365Z,101655.14
2023-04-09T21:40:03.706Z,101652.23
2023-04-09T21:43:30.691Z,101653.49
2023-04-09T21:46:57.838Z,101655.63
2023-04-09T21:50:25.099Z,101652.48
2023-04-09T21:53:54.185Z,101653.38
2023-04-09T21:57:21.100Z,101655.70
2023-04-09T22:00:48.169Z,101658.95
2023-04-09T22:04:15.137Z,101660.85
2023-04-09T22:07:42.672Z,101656.11
2023-04-09T22:11:09.970Z,101657.65
2023-04-09T22:14:36.942Z,101655.63
2023-04-09T22:18:04.102Z,101656.38
2023-04-09T22:21:31.707Z,101653.38
2023-04-09T22:24:58.717Z,101654.91
2023-04-09T22:28:25.775Z,101646.55
2023-04-09T22:31:52.693Z,101650.61
2023-04-09T22:35:20.043Z,101651.69
2023-04-09T22:38:47.517Z,101658.93
2023-04-09T22:42:14.775Z,101661.52
2023-04-09T22:45:41.630Z,101665.20
2023-04-09T22:49:09.133Z,101665.96
2023-04-09T22:52:36.443Z,101667.75
2023-04-09T22:56:03.712Z,101669.88
2023-04-09T22:59:39.248Z,101669.00
2023-04-09T23:03:07.726Z,101669.17
2023-04-09T23:06:34.723Z,101664.95
2023-04-09T23:10:02.090Z,101660.23
2023-04-09T23:13:29.124Z,101663.47
2023-04-09T23:16:56.419Z,101665.17
2023-04-09T23:20:23.754Z,101662.93
2023-04-09T23:23:50.622Z,101665.73
2023-04-09T23:27:17.569Z,101662.46
2023-04-09T23:30:45.063Z,101660.77
2023-04-09T23:34:13.022Z,101660.70
2023-04-09T23:37:39.892Z,101655.33
2023-04-09T23:41:08.118Z,101654.47
2023-04-09T23:44:35.506Z,101652.52
2023-04-09T23:48:03.296Z,101649.66
2023-04-09T23:51:30.172Z,101647.71
2023-04-09T23:54:56.992Z,101646.69
2023-04-09T23:58:24.057Z,101644.52
